sensor_id;sensor_type;location;lat;lon;timestamp;pressure;altitude;pressure_sealevel;temperature;humidity
3780;BME280;1905;52.482;9.802;2023-03-14T00:00:15;98559.84;;;11.23;89.02
3780;BME280;1905;52.482;9.802;2023-03-14T00:02:44;98560.06;;;11.20;89.88
3780;BME280;1905;52.482;9.802;2023-03-14T00:05:12;98556.72;;;11.18;88.78
3780;BME280;1905;52.482;9.802;2023-03-14T00:07:39;98544.47;;;11.17;87.82
3780;BME280;1905;52.482;9.802;2023-03-14T00:10:10;98542.81;;;11.16;87.61
3780;BME280;1905;52.482;9.802;2023-03-14T00:12:40;98530.31;;;11.18;87.08
3780;BME280;1905;52.482;9.802;2023-03-14T00:15:08;98508.31;;;11.18;88.27
3780;BME280;1905;52.482;9.802;2023-03-14T00:17:36;98503.88;;;11.18;87.54
3780;BME280;1905;52.482;9.802;2023-03-14T00:20:09;98483.00;;;11.15;87.14
3780;BME280;1905;52.482;9.802;2023-03-14T00:22:37;98491.88;;;11.14;88.29
3780;BME280;1905;52.482;9.802;2023-03-14T00:25:07;98508.47;;;11.16;87.29
3780;BME280;1905;52.482;9.802;2023-03-14T00:27:35;98515.53;;;11.16;87.43
3780;BME280;1905;52.482;9.802;2023-03-14T00:30:05;98519.03;;;11.16;87.09
3780;BME280;1905;52.482;9.802;2023-03-14T00:32:34;98509.16;;;11.18;87.58
3780;BME280;1905;52.482;9.802;2023-03-14T00:35:02;98521.28;;;11.21;87.78
3780;BME280;1905;52.482;9.802;2023-03-14T00:37:31;98535.59;;;11.18;88.95
3780;BME280;1905;52.482;9.802;2023-03-14T00:39:58;98516.38;;;11.16;88.21
3780;BME280;1905;52.482;9.802;2023-03-14T00:42:26;98527.91;;;11.15;88.24
3780;BME280;1905;52.482;9.802;2023-03-14T00:44:53;98520.59;;;11.19;87.07
3780;BME280;1905;52.482;9.802;2023-03-14T00:47:21;98531.72;;;11.22;86.91
3780;BME280;1905;52.482;9.802;2023-03-14T00:49:48;98538.94;;;11.20;88.04
3780;BME280;1905;52.482;9.802;2023-03-14T00:52:17;98540.63;;;11.21;86.79
3780;BME280;1905;52.482;9.802;2023-03-14T00:54:46;98539.66;;;11.22;87.32
3780;BME280;1905;52.482;9.802;2023-03-14T00:57:14;98543.13;;;11.23;87.25
3780;BME280;1905;52.482;9.802;2023-03-14T00:59:41;98538.69;;;11.23;86.81
3780;BME280;1905;52.482;9.802;2023-03-14T01:02:09;98535.09;;;11.24;86.72
3780;BME280;1905;52.482;9.802;2023-03-14T01:04:36;98522.84;;;11.23;86.71
3780;BME280;1905;52.482;9.802;2023-03-14T01:07:05;98512.16;;;11.25;87.20
3780;BME280;1905;52.482;9.802;2023-03-14T01:09:33;98504.34;;;11.23;87.83
3780;BME280;1905;52.482;9.802;2023-03-14T01:12:03;98501.47;;;11.26;86.73
3780;BME280;1905;52.482;9.802;2023-03-14T01:14:30;98476.72;;;11.27;86.41
3780;BME280;1905;52.482;9.802;2023-03-14T01:16:58;98478.63;;;11.25;87.09
3780;BME280;1905;52.482;9.802;2023-03-14T01:19:27;98495.34;;;11.26;87.78
3780;BME280;1905;52.482;9.802;2023-03-14T01:21:55;98502.56;;;11.24;87.80
3780;BME280;1905;52.482;9.802;2023-03-14T01:24:22;98483.91;;;11.25;86.81
3780;BME280;1905;52.482;9.802;2023-03-14T01:26:50;98480.56;;;11.23;87.25
3780;BME280;1905;52.482;9.802;2023-03-14T01:29:19;98473.34;;;11.25;87.72
3780;BME280;1905;52.482;9.802;2023-03-14T01:31:47;98484.91;;;11.24;86.87
3780;BME280;1905;52.482;9.802;2023-03-14T01:34:14;98473.34;;;11.25;86.39
3780;BME280;1905;52.482;9.802;2023-03-14T01:36:42;98485.00;;;11.23;86.97
3780;BME280;1905;52.482;9.802;2023-03-14T01:39:10;98469.28;;;11.21;87.02
3780;BME280;1905;52.482;9.802;2023-03-14T01:41:37;98463.31;;;11.19;87.00
3780;BME280;1905;52.482;9.802;2023-03-14T01:44:05;98472.88;;;11.20;87.11
3780;BME280;1905;52.482;9.802;2023-03-14T01:46:37;98493.19;;;11.20;87.43
3780;BME280;1905;52.482;9.802;2023-03-14T01:49:18;98501.94;;;11.20;86.98
3780;BME280;1905;52.482;9.802;2023-03-14T01:51:57;98500.53;;;11.16;86.89
3780;BME280;1905;52.482;9.802;2023-03-14T01:54:28;98468.84;;;11.16;87.01
3780;BME280;1905;52.482;9.802;2023-03-14T01:57:05;98435.19;;;11.18;86.65
3780;BME280;1905;52.482;9.802;2023-03-14T01:59:34;98424.63;;;11.18;86.67
3780;BME280;1905;52.482;9.802;2023-03-14T02:02:04;98434.50;;;11.16;86.62
3780;BME280;1905;52.482;9.802;2023-03-14T02:04:34;98452.97;;;11.16;86.91
3780;BME280;1905;52.482;9.802;2023-03-14T02:07:09;98442.66;;;11.13;86.86
3780;BME280;1905;52.482;9.802;2023-03-14T02:09:43;98449.59;;;11.14;86.54
3780;BME280;1905;52.482;9.802;2023-03-14T02:12:20;98451.28;;;11.15;86.81
3780;BME280;1905;52.482;9.802;2023-03-14T02:15:04;98455.63;;;11.16;87.12
3780;BME280;1905;52.482;9.802;2023-03-14T02:18:02;98454.66;;;11.17;86.87
3780;BME280;1905;52.482;9.802;2023-03-14T02:20:50;98464.97;;;11.20;86.81
3780;BME280;1905;52.482;9.802;2023-03-14T02:23:26;98469.41;;;11.20;86.82
3780;BME280;1905;52.482;9.802;2023-03-14T02:25:59;98472.88;;;11.20;86.66
3780;BME280;1905;52.482;9.802;2023-03-14T02:28:29;98483.34;;;11.22;87.33
3780;BME280;1905;52.482;9.802;2023-03-14T02:31:00;98477.94;;;11.23;86.22
3780;BME280;1905;52.482;9.802;2023-03-14T02:33:32;98468.91;;;11.26;86.51
3780;BME280;1905;52.482;9.802;2023-03-14T02:36:01;98459.03;;;11.28;86.45
3780;BME280;1905;52.482;9.802;2023-03-14T02:38:35;98451.25;;;11.26;86.23
3780;BME280;1905;52.482;9.802;2023-03-14T02:41:05;98448.22;;;11.31;86.61
3780;BME280;1905;52.482;9.802;2023-03-14T02:43:39;98454.59;;;11.28;86.18
3780;BME280;1905;52.482;9.802;2023-03-14T02:46:12;98430.56;;;11.31;86.25
3780;BME280;1905;52.482;9.802;2023-03-14T02:48:43;98428.91;;;11.30;85.68
3780;BME280;1905;52.482;9.802;2023-03-14T02:51:14;98423.63;;;11.30;86.43
3780;BME280;1905;52.482;9.802;2023-03-14T02:53:45;98424.59;;;11.29;86.25
3780;BME280;1905;52.482;9.802;2023-03-14T02:56:13;98413.50;;;11.35;85.46
3780;BME280;1905;52.482;9.802;2023-03-14T02:58:42;98421.69;;;11.32;85.79
3780;BME280;1905;52.482;9.802;2023-03-14T03:01:36;98410.88;;;11.35;85.35
3780;BME280;1905;52.482;9.802;2023-03-14T03:04:04;98413.63;;;11.34;85.67
3780;BME280;1905;52.482;9.802;2023-03-14T03:06:32;98430.31;;;11.34;85.83
3780;BME280;1905;52.482;9.802;2023-03-14T03:09:00;98407.50;;;11.33;86.47
3780;BME280;1905;52.482;9.802;2023-03-14T03:11:28;98414.31;;;11.36;85.22
3780;BME280;1905;52.482;9.802;2023-03-14T03:13:57;98408.22;;;11.35;85.75
3780;BME280;1905;52.482;9.802;2023-03-14T03:16:27;98400.31;;;11.35;84.93
3780;BME280;1905;52.482;9.802;2023-03-14T03:18:55;98393.31;;;11.34;85.42
3780;BME280;1905;52.482;9.802;2023-03-14T03:21:22;98397.06;;;11.32;85.55
3780;BME280;1905;52.482;9.802;2023-03-14T03:23:50;98400.84;;;11.39;85.17
3780;BME280;1905;52.482;9.802;2023-03-14T03:26:18;98396.66;;;11.36;85.16
3780;BME280;1905;52.482;9.802;2023-03-14T03:28:45;98394.28;;;11.33;85.08
3780;BME280;1905;52.482;9.802;2023-03-14T03:31:16;98396.22;;;11.31;85.03
3780;BME280;1905;52.482;9.802;2023-03-14T03:33:44;98396.91;;;11.33;85.31
3780;BME280;1905;52.482;9.802;2023-03-14T03:36:11;98389.97;;;11.32;84.70
3780;BME280;1905;52.482;9.802;2023-03-14T03:38:39;98386.09;;;11.36;84.20
3780;BME280;1905;52.482;9.802;2023-03-14T03:41:08;98384.44;;;11.35;84.76
3780;BME280;1905;52.482;9.802;2023-03-14T03:43:35;98384.44;;;11.35;84.95
3780;BME280;1905;52.482;9.802;2023-03-14T03:46:06;98377.47;;;11.34;84.72
3780;BME280;1905;52.482;9.802;2023-03-14T03:48:35;98375.53;;;11.36;84.64
3780;BME280;1905;52.482;9.802;2023-03-14T03:51:05;98377.47;;;11.34;84.77
3780;BME280;1905;52.482;9.802;2023-03-14T03:53:33;98411.81;;;11.34;85.98
3780;BME280;1905;52.482;9.802;2023-03-14T03:56:07;98421.44;;;11.35;87.00
3780;BME280;1905;52.482;9.802;2023-03-14T03:58:36;98425.94;;;11.24;87.42
3780;BME280;1905;52.482;9.802;2023-03-14T04:01:06;98421.59;;;11.23;87.67
3780;BME280;1905;52.482;9.802;2023-03-14T04:03:35;98433.50;;;11.17;87.65
3780;BME280;1905;52.482;9.802;2023-03-14T04:06:06;98422.25;;;11.15;86.96
3780;BME280;1905;52.482;9.802;2023-03-14T04:08:37;98411.81;;;11.14;87.51
3780;BME280;1905;52.482;9.802;2023-03-14T04:11:05;98411.22;;;11.10;88.71
3780;BME280;1905;52.482;9.802;2023-03-14T04:14:05;98421.53;;;11.13;87.83
3780;BME280;1905;52.482;9.802;2023-03-14T04:16:33;98421.78;;;11.10;88.00
3780;BME280;1905;52.482;9.802;2023-03-14T04:19:08;98423.72;;;11.08;88.01
3780;BME280;1905;52.482;9.802;2023-03-14T04:21:36;98429.09;;;11.07;88.74
3780;BME280;1905;52.482;9.802;2023-03-14T04:24:11;98418.69;;;11.05;87.97
3780;BME280;1905;52.482;9.802;2023-03-14T04:26:40;98417.00;;;11.04;87.54
3780;BME280;1905;52.482;9.802;2023-03-14T04:29:09;98413.50;;;11.04;87.71
3780;BME280;1905;52.482;9.802;2023-03-14T04:31:39;98412.19;;;10.98;87.35
3780;BME280;1905;52.482;9.802;2023-03-14T04:34:08;98415.94;;;10.96;87.04
3780;BME280;1905;52.482;9.802;2023-03-14T04:36:41;98408.00;;;10.96;87.24
3780;BME280;1905;52.482;9.802;2023-03-14T04:39:14;98405.75;;;10.91;88.37
3780;BME280;1905;52.482;9.802;2023-03-14T04:41:50;98408.78;;;10.87;88.21
3780;BME280;1905;52.482;9.802;2023-03-14T04:44:18;98395.69;;;10.85;87.88
3780;BME280;1905;52.482;9.802;2023-03-14T04:46:49;98372.31;;;10.81;87.04
3780;BME280;1905;52.482;9.802;2023-03-14T04:49:18;98382.28;;;10.77;86.88
3780;BME280;1905;52.482;9.802;2023-03-14T04:51:45;98375.06;;;10.79;87.14
3780;BME280;1905;52.482;9.802;2023-03-14T04:54:13;98373.91;;;10.72;86.36
3780;BME280;1905;52.482;9.802;2023-03-14T04:56:41;98368.63;;;10.72;87.29
3780;BME280;1905;52.482;9.802;2023-03-14T04:59:08;98358.31;;;10.69;87.72
3780;BME280;1905;52.482;9.802;2023-03-14T05:01:39;98358.78;;;10.63;87.89
3780;BME280;1905;52.482;9.802;2023-03-14T05:04:21;98345.84;;;10.60;88.57
3780;BME280;1905;52.482;9.802;2023-03-14T05:07:09;98350.41;;;10.58;87.91
3780;BME280;1905;52.482;9.802;2023-03-14T05:09:53;98343.97;;;10.51;89.06
3780;BME280;1905;52.482;9.802;2023-03-14T05:12:29;98342.03;;;10.53;88.11
3780;BME280;1905;52.482;9.802;2023-03-14T05:15:07;98334.25;;;10.51;88.51
3780;BME280;1905;52.482;9.802;2023-03-14T05:17:42;98335.69;;;10.44;88.45
3780;BME280;1905;52.482;9.802;2023-03-14T05:20:27;98337.75;;;10.41;89.14
3780;BME280;1905;52.482;9.802;2023-03-14T05:23:13;98333.44;;;10.40;88.39
3780;BME280;1905;52.482;9.802;2023-03-14T05:26:06;98343.53;;;10.35;89.14
3780;BME280;1905;52.482;9.802;2023-03-14T05:29:06;98352.16;;;10.37;88.47
3780;BME280;1905;52.482;9.802;2023-03-14T05:31:45;98358.03;;;10.29;88.94
3780;BME280;1905;52.482;9.802;2023-03-14T05:34:37;98355.88;;;10.23;88.19
3780;BME280;1905;52.482;9.802;2023-03-14T05:37:27;98363.94;;;10.22;89.72
3780;BME280;1905;52.482;9.802;2023-03-14T05:40:13;98361.31;;;10.22;89.53
3780;BME280;1905;52.482;9.802;2023-03-14T05:43:03;98349.44;;;10.16;89.65
3780;BME280;1905;52.482;9.802;2023-03-14T05:45:50;98358.16;;;10.16;88.99
3780;BME280;1905;52.482;9.802;2023-03-14T05:48:30;98363.56;;;10.15;89.25
3780;BME280;1905;52.482;9.802;2023-03-14T05:51:13;98361.28;;;10.10;88.35
3780;BME280;1905;52.482;9.802;2023-03-14T05:54:00;98362.94;;;10.11;89.06
3780;BME280;1905;52.482;9.802;2023-03-14T05:56:55;98366.56;;;10.10;89.21
3780;BME280;1905;52.482;9.802;2023-03-14T05:59:42;98361.63;;;10.06;89.87
3780;BME280;1905;52.482;9.802;2023-03-14T06:02:28;98365.34;;;10.03;90.22
3780;BME280;1905;52.482;9.802;2023-03-14T06:05:04;98363.44;;;10.05;88.66
3780;BME280;1905;52.482;9.802;2023-03-14T06:07:32;98356.72;;;10.01;88.63
3780;BME280;1905;52.482;9.802;2023-03-14T06:10:01;98355.28;;;9.97;89.15
3780;BME280;1905;52.482;9.802;2023-03-14T06:12:28;98349.19;;;9.97;89.06
3780;BME280;1905;52.482;9.802;2023-03-14T06:14:56;98358.03;;;9.96;89.42
3780;BME280;1905;52.482;9.802;2023-03-14T06:17:24;98350.84;;;9.98;89.29
3780;BME280;1905;52.482;9.802;2023-03-14T06:19:59;98358.28;;;9.93;89.71
3780;BME280;1905;52.482;9.802;2023-03-14T06:22:28;98364.63;;;9.90;89.18
3780;BME280;1905;52.482;9.802;2023-03-14T06:24:56;98370.13;;;9.87;88.89
3780;BME280;1905;52.482;9.802;2023-03-14T06:27:26;98370.75;;;9.91;90.15
3780;BME280;1905;52.482;9.802;2023-03-14T06:29:55;98369.91;;;9.90;89.61
3780;BME280;1905;52.482;9.802;2023-03-14T06:32:24;98371.81;;;9.88;89.29
3780;BME280;1905;52.482;9.802;2023-03-14T06:34:56;98377.09;;;9.88;89.40
3780;BME280;1905;52.482;9.802;2023-03-14T06:37:28;98377.56;;;9.82;89.18
3780;BME280;1905;52.482;9.802;2023-03-14T06:39:56;98384.53;;;9.83;89.22
3780;BME280;1905;52.482;9.802;2023-03-14T06:43:01;98366.78;;;9.85;88.69
3780;BME280;1905;52.482;9.802;2023-03-14T06:45:30;98374.56;;;9.87;89.02
3780;BME280;1905;52.482;9.802;2023-03-14T06:48:01;98374.69;;;9.85;88.78
3780;BME280;1905;52.482;9.802;2023-03-14T06:50:36;98386.19;;;9.84;89.56
3780;BME280;1905;52.482;9.802;2023-03-14T06:53:04;98381.75;;;9.85;89.62
3780;BME280;1905;52.482;9.802;2023-03-14T06:55:35;98384.16;;;9.88;89.44
3780;BME280;1905;52.482;9.802;2023-03-14T06:58:05;98391.22;;;9.87;89.10
3780;BME280;1905;52.482;9.802;2023-03-14T07:00:39;98393.63;;;9.90;88.45
3780;BME280;1905;52.482;9.802;2023-03-14T07:03:08;98392.69;;;9.91;89.21
3780;BME280;1905;52.482;9.802;2023-03-14T07:05:40;98394.09;;;9.95;88.95
3780;BME280;1905;52.482;9.802;2023-03-14T07:08:08;98385.00;;;9.99;88.73
3780;BME280;1905;52.482;9.802;2023-03-14T07:10:35;98393.63;;;10.01;88.70
3780;BME280;1905;52.482;9.802;2023-03-14T07:13:08;98390.06;;;10.02;88.83
3780;BME280;1905;52.482;9.802;2023-03-14T07:15:45;98388.84;;;10.06;87.84
3780;BME280;1905;52.482;9.802;2023-03-14T07:18:13;98385.13;;;10.09;87.93
3780;BME280;1905;52.482;9.802;2023-03-14T07:20:41;98399.84;;;10.11;87.77
3780;BME280;1905;52.482;9.802;2023-03-14T07:23:08;98404.22;;;10.12;88.70
3780;BME280;1905;52.482;9.802;2023-03-14T07:25:44;98396.91;;;10.16;87.74
3780;BME280;1905;52.482;9.802;2023-03-14T07:28:15;98409.03;;;10.19;87.96
3780;BME280;1905;52.482;9.802;2023-03-14T07:30:46;98407.56;;;10.26;88.05
3780;BME280;1905;52.482;9.802;2023-03-14T07:33:19;98407.56;;;10.26;88.05
3780;BME280;1905;52.482;9.802;2023-03-14T07:35:48;98399.41;;;10.29;87.11
3780;BME280;1905;52.482;9.802;2023-03-14T07:38:16;98406.38;;;10.30;88.40
3780;BME280;1905;52.482;9.802;2023-03-14T07:41:05;98396.28;;;10.35;87.54
3780;BME280;1905;52.482;9.802;2023-03-14T07:43:40;98407.69;;;10.35;87.58
3780;BME280;1905;52.482;9.802;2023-03-14T07:46:08;98393.66;;;10.35;87.70
3780;BME280;1905;52.482;9.802;2023-03-14T07:48:35;98399.41;;;10.40;88.14
3780;BME280;1905;52.482;9.802;2023-03-14T07:51:03;98406.09;;;10.44;87.48
3780;BME280;1905;52.482;9.802;2023-03-14T07:53:31;98403.97;;;10.49;87.69
3780;BME280;1905;52.482;9.802;2023-03-14T07:55:58;98403.97;;;10.49;87.17
3780;BME280;1905;52.482;9.802;2023-03-14T07:58:26;98407.31;;;10.51;87.77
3780;BME280;1905;52.482;9.802;2023-03-14T08:00:55;98408.16;;;10.51;87.55
3780;BME280;1905;52.482;9.802;2023-03-14T08:03:22;98403.44;;;10.55;88.00
3780;BME280;1905;52.482;9.802;2023-03-14T08:05:50;98399.59;;;10.59;88.87
3780;BME280;1905;52.482;9.802;2023-03-14T08:08:18;98395.75;;;10.63;87.99
3780;BME280;1905;52.482;9.802;2023-03-14T08:10:46;98400.06;;;10.64;88.27
3780;BME280;1905;52.482;9.802;2023-03-14T08:13:13;98404.03;;;10.69;88.23
3780;BME280;1905;52.482;9.802;2023-03-14T08:15:41;98402.22;;;10.70;88.62
3780;BME280;1905;52.482;9.802;2023-03-14T08:18:10;98398.34;;;10.74;88.04
3780;BME280;1905;52.482;9.802;2023-03-14T08:20:37;98399.09;;;10.76;88.27
3780;BME280;1905;52.482;9.802;2023-03-14T08:23:05;98399.31;;;10.84;88.67
3780;BME280;1905;52.482;9.802;2023-03-14T08:25:32;98404.59;;;10.84;88.35
3780;BME280;1905;52.482;9.802;2023-03-14T08:28:00;98407.09;;;10.86;88.06
3780;BME280;1905;52.482;9.802;2023-03-14T08:30:28;98411.03;;;10.91;87.97
3780;BME280;1905;52.482;9.802;2023-03-14T08:32:56;98408.25;;;10.93;88.29
3780;BME280;1905;52.482;9.802;2023-03-14T08:35:26;98404.41;;;10.97;89.21
3780;BME280;1905;52.482;9.802;2023-03-14T08:37:53;98413.91;;;10.99;88.21
3780;BME280;1905;52.482;9.802;2023-03-14T08:40:22;98411.97;;;11.01;88.37
3780;BME280;1905;52.482;9.802;2023-03-14T08:42:49;98414.59;;;11.01;88.60
3780;BME280;1905;52.482;9.802;2023-03-14T08:45:17;98414.59;;;11.01;88.08
3780;BME280;1905;52.482;9.802;2023-03-14T08:47:44;98417.00;;;11.04;88.06
3780;BME280;1905;52.482;9.802;2023-03-14T08:50:13;98425.63;;;11.06;87.66
3780;BME280;1905;52.482;9.802;2023-03-14T08:52:43;98417.91;;;11.14;87.93
3780;BME280;1905;52.482;9.802;2023-03-14T08:55:11;98426.44;;;11.18;88.60
3780;BME280;1905;52.482;9.802;2023-03-14T08:57:38;98425.72;;;11.16;87.98
3780;BME280;1905;52.482;9.802;2023-03-14T09:00:08;98412.13;;;11.20;88.42
3780;BME280;1905;52.482;9.802;2023-03-14T09:02:40;98418.72;;;11.26;88.88
3780;BME280;1905;52.482;9.802;2023-03-14T09:05:09;98420.84;;;11.32;88.95
3780;BME280;1905;52.482;9.802;2023-03-14T09:07:37;98409.19;;;11.34;88.51
3780;BME280;1905;52.482;9.802;2023-03-14T09:10:07;98405.69;;;11.34;88.06
3780;BME280;1905;52.482;9.802;2023-03-14T09:12:35;98414.22;;;11.38;88.21
3780;BME280;1905;52.482;9.802;2023-03-14T09:15:04;98412.38;;;11.49;88.69
3780;BME280;1905;52.482;9.802;2023-03-14T09:17:32;98420.75;;;11.54;88.20
3780;BME280;1905;52.482;9.802;2023-03-14T09:19:59;98420.50;;;11.57;88.81
3780;BME280;1905;52.482;9.802;2023-03-14T09:22:27;98420.78;;;11.64;88.58
3780;BME280;1905;52.482;9.802;2023-03-14T09:24:54;98424.41;;;11.63;88.54
3780;BME280;1905;52.482;9.802;2023-03-14T09:27:23;98419.13;;;11.63;88.19
3780;BME280;1905;52.482;9.802;2023-03-14T09:29:50;98427.28;;;11.71;88.64
3780;BME280;1905;52.482;9.802;2023-03-14T09:32:18;98428.94;;;11.72;89.21
3780;BME280;1905;52.482;9.802;2023-03-14T09:34:46;98427.84;;;11.74;88.59
3780;BME280;1905;52.482;9.802;2023-03-14T09:37:13;98420.00;;;11.84;88.97
3780;BME280;1905;52.482;9.802;2023-03-14T09:39:42;98419.72;;;11.87;88.50
3780;BME280;1905;52.482;9.802;2023-03-14T09:42:13;98417.53;;;11.92;89.05
3780;BME280;1905;52.482;9.802;2023-03-14T09:44:51;98414.63;;;11.95;88.68
3780;BME280;1905;52.482;9.802;2023-03-14T09:47:20;98422.41;;;11.97;88.42
3780;BME280;1905;52.482;9.802;2023-03-14T09:49:49;98413.81;;;12.04;88.93
3780;BME280;1905;52.482;9.802;2023-03-14T09:52:21;98419.56;;;12.09;88.33
3780;BME280;1905;52.482;9.802;2023-03-14T09:54:51;98416.94;;;12.09;87.82
3780;BME280;1905;52.482;9.802;2023-03-14T09:57:21;98411.09;;;12.15;88.12
3780;BME280;1905;52.482;9.802;2023-03-14T09:59:53;98428.97;;;12.23;87.70
3780;BME280;1905;52.482;9.802;2023-03-14T10:02:23;98409.19;;;12.27;87.68
3780;BME280;1905;52.482;9.802;2023-03-14T10:04:53;98416.72;;;12.31;86.83
3780;BME280;1905;52.482;9.802;2023-03-14T10:07:25;98418.41;;;12.32;87.14
3780;BME280;1905;52.482;9.802;2023-03-14T10:09:55;98419.53;;;12.39;86.97
3780;BME280;1905;52.482;9.802;2023-03-14T10:12:31;98417.91;;;12.48;86.44
3780;BME280;1905;52.482;9.802;2023-03-14T10:15:04;98414.88;;;12.52;86.67
3780;BME280;1905;52.482;9.802;2023-03-14T10:17:39;98409.41;;;12.54;86.16
3780;BME280;1905;52.482;9.802;2023-03-14T10:20:26;98410.69;;;12.60;85.71
3780;BME280;1905;52.482;9.802;2023-03-14T10:22:59;98407.94;;;12.71;86.18
3780;BME280;1905;52.482;9.802;2023-03-14T10:25:28;98406.13;;;12.81;86.76
3780;BME280;1905;52.482;9.802;2023-03-14T10:27:56;98406.81;;;12.83;85.33
3780;BME280;1905;52.482;9.802;2023-03-14T10:30:33;98402.94;;;12.87;85.32
3780;BME280;1905;52.482;9.802;2023-03-14T10:33:11;98403.78;;;12.97;86.86
3780;BME280;1905;52.482;9.802;2023-03-14T10:35:39;98402.97;;;13.06;87.04
3780;BME280;1905;52.482;9.802;2023-03-14T10:38:13;98400.75;;;13.11;87.33
3780;BME280;1905;52.482;9.802;2023-03-14T10:40:48;98403.28;;;13.13;86.07
3780;BME280;1905;52.482;9.802;2023-03-14T10:43:19;98414.97;;;13.10;86.44
3780;BME280;1905;52.482;9.802;2023-03-14T10:45:54;98417.63;;;13.10;85.34
3780;BME280;1905;52.482;9.802;2023-03-14T10:48:30;98412.78;;;13.15;86.95
3780;BME280;1905;52.482;9.802;2023-03-14T10:51:04;98409.97;;;13.07;86.35
3780;BME280;1905;52.482;9.802;2023-03-14T10:53:40;98408.53;;;13.03;86.51
3780;BME280;1905;52.482;9.802;2023-03-14T10:56:11;98416.09;;;13.07;86.79
3780;BME280;1905;52.482;9.802;2023-03-14T10:58:42;98409.38;;;13.03;86.14
3780;BME280;1905;52.482;9.802;2023-03-14T11:01:26;98407.56;;;13.04;86.75
3780;BME280;1905;52.482;9.802;2023-03-14T11:04:02;98401.13;;;12.97;85.49
3780;BME280;1905;52.482;9.802;2023-03-14T11:06:36;98396.84;;;12.96;87.00
3780;BME280;1905;52.482;9.802;2023-03-14T11:09:15;98405.75;;;12.95;86.81
3780;BME280;1905;52.482;9.802;2023-03-14T11:11:47;98398.47;;;12.97;87.15
3780;BME280;1905;52.482;9.802;2023-03-14T11:14:20;98441.44;;;12.91;86.11
3780;BME280;1905;52.482;9.802;2023-03-14T11:16:57;98503.53;;;12.68;85.72
3780;BME280;1905;52.482;9.802;2023-03-14T11:19:32;98519.00;;;12.42;85.49
3780;BME280;1905;52.482;9.802;2023-03-14T11:22:09;98538.09;;;12.15;85.98
3780;BME280;1905;52.482;9.802;2023-03-14T11:24:50;98574.44;;;12.13;86.34
3780;BME280;1905;52.482;9.802;2023-03-14T11:27:26;98575.69;;;12.09;85.69
3780;BME280;1905;52.482;9.802;2023-03-14T11:30:02;98571.69;;;12.15;86.02
3780;BME280;1905;52.482;9.802;2023-03-14T11:32:45;98617.31;;;11.96;85.64
3780;BME280;1905;52.482;9.802;2023-03-14T11:35:17;98593.31;;;11.88;86.22
3780;BME280;1905;52.482;9.802;2023-03-14T11:37:52;98596.53;;;11.91;86.14
3780;BME280;1905;52.482;9.802;2023-03-14T11:40:22;98611.13;;;11.86;86.67
3780;BME280;1905;52.482;9.802;2023-03-14T11:42:56;98624.63;;;11.50;83.34
3780;BME280;1905;52.482;9.802;2023-03-14T11:45:32;98642.44;;;11.48;85.97
3780;BME280;1905;52.482;9.802;2023-03-14T11:48:19;98654.22;;;11.32;84.52
3780;BME280;1905;52.482;9.802;2023-03-14T11:50:52;98653.75;;;11.16;84.38
3780;BME280;1905;52.482;9.802;2023-03-14T11:53:23;98673.34;;;11.03;85.25
3780;BME280;1905;52.482;9.802;2023-03-14T11:55:53;98680.16;;;10.94;85.22
3780;BME280;1905;52.482;9.802;2023-03-14T11:58:23;98687.38;;;10.92;85.07
3780;BME280;1905;52.482;9.802;2023-03-14T12:00:54;98701.84;;;10.75;84.34
3780;BME280;1905;52.482;9.802;2023-03-14T12:03:29;98717.78;;;10.63;84.48
3780;BME280;1905;52.482;9.802;2023-03-14T12:06:05;98742.47;;;10.51;83.86
3780;BME280;1905;52.482;9.802;2023-03-14T12:08:40;98755.97;;;10.35;84.38
3780;BME280;1905;52.482;9.802;2023-03-14T12:11:13;98779.63;;;10.24;84.23
3780;BME280;1905;52.482;9.802;2023-03-14T12:13:46;98791.47;;;10.19;84.19
3780;BME280;1905;52.482;9.802;2023-03-14T12:16:32;98804.16;;;10.13;84.64
3780;BME280;1905;52.482;9.802;2023-03-14T12:19:37;98819.53;;;10.07;85.34
3780;BME280;1905;52.482;9.802;2023-03-14T12:22:22;98840.88;;;9.91;84.03
3780;BME280;1905;52.482;9.802;2023-03-14T12:24:54;98868.41;;;9.75;83.75
3780;BME280;1905;52.482;9.802;2023-03-14T12:30:39;98864.31;;;9.58;84.66
3780;BME280;1905;52.482;9.802;2023-03-14T12:33:29;98884.53;;;9.57;84.81
3780;BME280;1905;52.482;9.802;2023-03-14T12:39:24;98925.00;;;9.44;83.23
3780;BME280;1905;52.482;9.802;2023-03-14T12:42:03;98920.69;;;9.43;85.73
3780;BME280;1905;52.482;9.802;2023-03-14T12:44:49;98940.16;;;9.28;84.79
3780;BME280;1905;52.482;9.802;2023-03-14T12:50:34;98953.16;;;9.04;83.66
3780;BME280;1905;52.482;9.802;2023-03-14T12:53:32;98978.16;;;8.97;84.30
3780;BME280;1905;52.482;9.802;2023-03-14T12:56:11;98966.81;;;8.96;85.00
3780;BME280;1905;52.482;9.802;2023-03-14T12:58:47;98979.41;;;8.91;83.95
3780;BME280;1905;52.482;9.802;2023-03-14T13:01:19;98965.69;;;8.86;84.23
3780;BME280;1905;52.482;9.802;2023-03-14T13:03:50;98982.91;;;8.78;83.85
3780;BME280;1905;52.482;9.802;2023-03-14T13:06:46;98993.25;;;8.81;84.59
3780;BME280;1905;52.482;9.802;2023-03-14T13:09:35;99007.41;;;8.66;84.35
3780;BME280;1905;52.482;9.802;2023-03-14T13:12:09;99020.63;;;8.64;85.01
3780;BME280;1905;52.482;9.802;2023-03-14T13:14:41;99048.28;;;8.57;83.88
3780;BME280;1905;52.482;9.802;2023-03-14T13:17:12;99047.59;;;8.54;84.36
3780;BME280;1905;52.482;9.802;2023-03-14T13:20:03;99058.91;;;8.56;84.15
3780;BME280;1905;52.482;9.802;2023-03-14T13:22:33;99068.56;;;8.55;84.98
3780;BME280;1905;52.482;9.802;2023-03-14T13:25:05;99072.13;;;8.54;84.67
3780;BME280;1905;52.482;9.802;2023-03-14T13:27:35;99083.31;;;8.58;85.22
3780;BME280;1905;52.482;9.802;2023-03-14T13:30:19;99084.25;;;8.57;84.61
3780;BME280;1905;52.482;9.802;2023-03-14T13:32:48;99105.50;;;8.54;85.08
3780;BME280;1905;52.482;9.802;2023-03-14T13:35:20;99109.72;;;8.56;85.08
3780;BME280;1905;52.482;9.802;2023-03-14T13:37:52;99109.72;;;8.56;84.49
3780;BME280;1905;52.482;9.802;2023-03-14T13:40:35;99122.50;;;8.48;84.02
3780;BME280;1905;52.482;9.802;2023-03-14T13:43:10;99122.69;;;8.45;85.25
3780;BME280;1905;52.482;9.802;2023-03-14T13:45:51;99139.47;;;8.43;84.89
3780;BME280;1905;52.482;9.802;2023-03-14T13:48:19;99140.81;;;8.50;84.35
3780;BME280;1905;52.482;9.802;2023-03-14T13:50:53;99138.09;;;8.51;84.98
3780;BME280;1905;52.482;9.802;2023-03-14T13:53:23;99154.72;;;8.52;85.22
3780;BME280;1905;52.482;9.802;2023-03-14T13:55:51;99161.78;;;8.51;84.57
3780;BME280;1905;52.482;9.802;2023-03-14T13:58:23;99161.19;;;8.46;85.02
3780;BME280;1905;52.482;9.802;2023-03-14T14:01:13;99182.06;;;8.49;84.66
3780;BME280;1905;52.482;9.802;2023-03-14T14:03:44;99203.97;;;8.50;85.34